Yuho Maru No.3 — JD2491 — position and weather

sailwx.info

Track history (hours):
 
Tides and Currents Weather Stations Pressure Air Temp Water Temp Dewpoint Dewpoint Depression Visibility Wind Speed Wind Dir Waves Ship Positions

Yuho Maru No.3

Last reported at 2016-Jul-21 07:29 UTC. Time now 2016-Jul-28 08:39 UTC.
Position N 35°11' E 139°45'.

Length 65 m; draft 4.2 m.

Type: Tanker. MMSI: 431000336.

Date/timePositionNaut miles runAvg speedWind from/ knotsBaromVisibWave heightAir tempDewpointWater temp
2016-Jul-21 07:29N 35°11' E 139°45'1010.7
2016-Jul-21 06:33N 35°21' E 139°42'1010.4
2016-Jul-21 05:34N 35°31' E 139°46'1 1.1
2016-Jul-21 04:33N 35°32' E 139°46'0 0.0
2016-Jul-21 03:33N 35°32' E 139°46'0 0.0
2016-Jul-21 02:33N 35°32' E 139°46'0 0.0
2016-Jul-21 01:34N 35°32' E 139°46'0 0.0
2016-Jul-21 00:33N 35°32' E 139°46'3 3.2
2016-Jul-20 23:34N 35°29' E 139°48'0 0.0
2016-Jul-20 22:33N 35°29' E 139°48'5 4.9
2016-Jul-20 21:33N 35°24' E 139°46'1111.3
2016-Jul-20 20:33N 35°13' E 139°47'14 0.4
2016-Jul-19 04:33N 35°27' E 139°47'1111.1
2016-Jul-19 03:33N 35°29' E 140°01'0 0.4
2016-Jul-19 02:33N 35°28' E 140°01'0 0.0
2016-Jul-19 01:33N 35°28' E 140°01'0 0.0
2016-Jul-19 00:33N 35°28' E 140°01'0 0.0
2016-Jul-18 23:32N 35°28' E 140°01'8 8.0
2016-Jul-18 22:33N 35°35' E 140°05'1 1.1
2016-Jul-18 21:33N 35°36' E 140°06'0 0.0
2016-Jul-18 20:33N 35°36' E 140°06'0 0.0
2016-Jul-18 19:33N 35°36' E 140°06'0 0.0
2016-Jul-18 18:33N 35°36' E 140°06'0 0.0
2016-Jul-18 17:33N 35°36' E 140°06'0 0.0
2016-Jul-18 16:33N 35°36' E 140°06'0 0.0
2016-Jul-18 15:33N 35°36' E 140°06'0 0.0
2016-Jul-18 14:32N 35°36' E 140°06'0 0.0
2016-Jul-18 13:33N 35°36' E 140°06'0 0.0
2016-Jul-18 12:33N 35°36' E 140°06'0 0.0
2016-Jul-18 11:33N 35°36' E 140°06'0 0.0
2016-Jul-18 10:33N 35°36' E 140°06'0 0.0
2016-Jul-18 09:33N 35°36' E 140°06'0 0.0
2016-Jul-18 08:33N 35°36' E 140°06'0 0.0
2016-Jul-18 07:33N 35°36' E 140°06'0 0.0
2016-Jul-18 06:33N 35°36' E 140°06'0 0.0
2016-Jul-18 05:33N 35°36' E 140°06'0 0.0
2016-Jul-18 04:33N 35°36' E 140°06'9 9.2
2016-Jul-18 03:33N 35°33' E 139°56'8 8.2
2016-Jul-18 02:33N 35°31' E 139°46'0 0.0
2016-Jul-18 01:33N 35°31' E 139°46'0 0.0
2016-Jul-18 00:33N 35°31' E 139°46'0 0.0
2016-Jul-17 23:33N 35°31' E 139°46'2 1.7
2016-Jul-17 22:33N 35°30' E 139°48'1 1.1
2016-Jul-17 21:33N 35°29' E 139°48'0 0.0
2016-Jul-17 20:33N 35°29' E 139°48'0 0.0
2016-Jul-17 19:33N 35°29' E 139°48'0 0.0
2016-Jul-17 18:33N 35°29' E 139°48'0 0.1
2016-Jul-17 17:33N 35°29' E 139°48'0 0.0
2016-Jul-17 16:33N 35°29' E 139°48'0 0.0
2016-Jul-17 15:33N 35°29' E 139°48'0 0.0
2016-Jul-17 14:33N 35°29' E 139°48'8 8.0
2016-Jul-17 13:33N 35°21' E 139°45'1211.7
2016-Jul-17 12:33N 35°09' E 139°46'  
2016-Jul-12 08:31N 35°11' E 139°45'1010.8
2016-Jul-12 07:33N 35°21' E 139°42'1110.9
2016-Jul-12 06:33N 35°29' E 139°51'1110.5
2016-Jul-12 05:33N 35°32' E 140°03'0 0.1
2016-Jul-12 04:33N 35°32' E 140°03'0 0.0
2016-Jul-12 03:33N 35°32' E 140°03'0 0.0
2016-Jul-12 02:33N 35°32' E 140°03'0 0.0
2016-Jul-12 01:33N 35°32' E 140°03'0 0.0
2016-Jul-12 00:33N 35°32' E 140°03'0 0.3
2016-Jul-11 23:33N 35°32' E 140°03'1 1.0
2016-Jul-11 22:33N 35°32' E 140°02'0 0.0
2016-Jul-11 21:33N 35°32' E 140°02'0 0.0
2016-Jul-11 20:33N 35°32' E 140°02'0 0.0
2016-Jul-11 19:33N 35°32' E 140°02'0 0.0
2016-Jul-11 18:33N 35°32' E 140°02'6 5.8
2016-Jul-11 17:33N 35°30' E 139°55'1211.7
2016-Jul-11 16:33N 35°22' E 139°45'1111.4
2016-Jul-11 15:33N 35°10' E 139°46'2512.2
2016-Jul-11 13:33N 34°53' E 139°25'  
Track history (hours):
 
Tides and Currents Weather Stations Pressure Air Temp Water Temp Dewpoint Dewpoint Depression Visibility Wind Speed Wind Dir Waves Ship Positions

Yuho Maru No.3

Last reported at 2016-Jul-21 07:29 UTC. Time now 2016-Jul-28 08:39 UTC.
Position N 35°11' E 139°45'.

Length 65 m; draft 4.2 m.

Type: Tanker. MMSI: 431000336.

Date/timePositionNaut miles runAvg speedWind from/ knotsBaromVisibWave heightAir tempDewpointWater temp
2016-Jul-21 07:29N 35°11' E 139°45'1010.7
2016-Jul-21 06:33N 35°21' E 139°42'1010.4
2016-Jul-21 05:34N 35°31' E 139°46'1 1.1
2016-Jul-21 04:33N 35°32' E 139°46'0 0.0
2016-Jul-21 03:33N 35°32' E 139°46'0 0.0
2016-Jul-21 02:33N 35°32' E 139°46'0 0.0
2016-Jul-21 01:34N 35°32' E 139°46'0 0.0
2016-Jul-21 00:33N 35°32' E 139°46'3 3.2
2016-Jul-20 23:34N 35°29' E 139°48'0 0.0
2016-Jul-20 22:33N 35°29' E 139°48'5 4.9
2016-Jul-20 21:33N 35°24' E 139°46'1111.3
2016-Jul-20 20:33N 35°13' E 139°47'14 0.4
2016-Jul-19 04:33N 35°27' E 139°47'1111.1
2016-Jul-19 03:33N 35°29' E 140°01'0 0.4
2016-Jul-19 02:33N 35°28' E 140°01'0 0.0
2016-Jul-19 01:33N 35°28' E 140°01'0 0.0
2016-Jul-19 00:33N 35°28' E 140°01'0 0.0
2016-Jul-18 23:32N 35°28' E 140°01'8 8.0
2016-Jul-18 22:33N 35°35' E 140°05'1 1.1
2016-Jul-18 21:33N 35°36' E 140°06'0 0.0
2016-Jul-18 20:33N 35°36' E 140°06'0 0.0
2016-Jul-18 19:33N 35°36' E 140°06'0 0.0
2016-Jul-18 18:33N 35°36' E 140°06'0 0.0
2016-Jul-18 17:33N 35°36' E 140°06'0 0.0
2016-Jul-18 16:33N 35°36' E 140°06'0 0.0
2016-Jul-18 15:33N 35°36' E 140°06'0 0.0
2016-Jul-18 14:32N 35°36' E 140°06'0 0.0
2016-Jul-18 13:33N 35°36' E 140°06'0 0.0
2016-Jul-18 12:33N 35°36' E 140°06'0 0.0
2016-Jul-18 11:33N 35°36' E 140°06'0 0.0
2016-Jul-18 10:33N 35°36' E 140°06'0 0.0
2016-Jul-18 09:33N 35°36' E 140°06'0 0.0
2016-Jul-18 08:33N 35°36' E 140°06'0 0.0
2016-Jul-18 07:33N 35°36' E 140°06'0 0.0
2016-Jul-18 06:33N 35°36' E 140°06'0 0.0
2016-Jul-18 05:33N 35°36' E 140°06'0 0.0
2016-Jul-18 04:33N 35°36' E 140°06'9 9.2
2016-Jul-18 03:33N 35°33' E 139°56'8 8.2
2016-Jul-18 02:33N 35°31' E 139°46'0 0.0
2016-Jul-18 01:33N 35°31' E 139°46'0 0.0
2016-Jul-18 00:33N 35°31' E 139°46'0 0.0
2016-Jul-17 23:33N 35°31' E 139°46'2 1.7
2016-Jul-17 22:33N 35°30' E 139°48'1 1.1
2016-Jul-17 21:33N 35°29' E 139°48'0 0.0
2016-Jul-17 20:33N 35°29' E 139°48'0 0.0
2016-Jul-17 19:33N 35°29' E 139°48'0 0.0
2016-Jul-17 18:33N 35°29' E 139°48'0 0.1
2016-Jul-17 17:33N 35°29' E 139°48'0 0.0
2016-Jul-17 16:33N 35°29' E 139°48'0 0.0
2016-Jul-17 15:33N 35°29' E 139°48'0 0.0
2016-Jul-17 14:33N 35°29' E 139°48'8 8.0
2016-Jul-17 13:33N 35°21' E 139°45'1211.7
2016-Jul-17 12:33N 35°09' E 139°46'  
2016-Jul-12 08:31N 35°11' E 139°45'1010.8
2016-Jul-12 07:33N 35°21' E 139°42'1110.9
2016-Jul-12 06:33N 35°29' E 139°51'1110.5
2016-Jul-12 05:33N 35°32' E 140°03'0 0.1
2016-Jul-12 04:33N 35°32' E 140°03'0 0.0
2016-Jul-12 03:33N 35°32' E 140°03'0 0.0
2016-Jul-12 02:33N 35°32' E 140°03'0 0.0
2016-Jul-12 01:33N 35°32' E 140°03'0 0.0
2016-Jul-12 00:33N 35°32' E 140°03'0 0.3
2016-Jul-11 23:33N 35°32' E 140°03'1 1.0
2016-Jul-11 22:33N 35°32' E 140°02'0 0.0
2016-Jul-11 21:33N 35°32' E 140°02'0 0.0
2016-Jul-11 20:33N 35°32' E 140°02'0 0.0
2016-Jul-11 19:33N 35°32' E 140°02'0 0.0
2016-Jul-11 18:33N 35°32' E 140°02'6 5.8
2016-Jul-11 17:33N 35°30' E 139°55'1211.7
2016-Jul-11 16:33N 35°22' E 139°45'1111.4
2016-Jul-11 15:33N 35°10' E 139°46'2512.2
2016-Jul-11 13:33N 34°53' E 139°25'  

Dump ship's entire track history